createdAt,value
2019-05-30T00:00:44.787Z,22.28
2019-05-30T00:01:45.360Z,22.29
2019-05-30T00:02:45.934Z,22.26
2019-05-30T00:03:46.505Z,22.26
2019-05-30T00:04:47.077Z,22.25
2019-05-30T00:05:47.648Z,22.30
2019-05-30T00:06:48.232Z,22.28
2019-05-30T00:07:48.837Z,22.26
2019-05-30T00:08:49.408Z,22.29
2019-05-30T00:09:49.980Z,22.29
2019-05-30T00:10:50.553Z,22.22
2019-05-30T00:11:51.132Z,22.26
2019-05-30T00:12:51.699Z,22.26
2019-05-30T00:13:52.270Z,22.28
2019-05-30T00:14:52.842Z,22.29
2019-05-30T00:15:54.588Z,22.26
2019-05-30T00:16:54.980Z,22.32
2019-05-30T00:17:56.642Z,22.30
2019-05-30T00:18:56.629Z,22.26
2019-05-30T00:19:56.819Z,22.28
2019-05-30T00:20:58.653Z,22.22
2019-05-30T00:21:58.920Z,22.28
2019-05-30T00:23:00.918Z,22.23
2019-05-30T00:24:00.148Z,22.23
2019-05-30T00:25:00.720Z,22.25
2019-05-30T00:26:01.422Z,22.26
2019-05-30T00:27:02.423Z,22.22
2019-05-30T00:28:05.165Z,22.30
2019-05-30T00:29:04.509Z,22.23
2019-05-30T00:30:05.119Z,22.22
2019-05-30T00:31:06.629Z,22.22
2019-05-30T00:32:06.297Z,22.22
2019-05-30T00:33:07.114Z,22.23
2019-05-30T00:34:07.692Z,22.29
2019-05-30T00:35:08.264Z,22.25
2019-05-30T00:36:08.838Z,22.23
2019-05-30T00:37:09.428Z,22.22
2019-05-30T00:38:10.028Z,22.25
2019-05-30T00:39:10.628Z,22.25
2019-05-30T00:40:11.229Z,22.23
2019-05-30T00:41:11.833Z,22.22
2019-05-30T00:42:12.410Z,22.29
2019-05-30T00:43:13.035Z,22.22
2019-05-30T00:44:13.635Z,22.25
2019-05-30T00:45:21.009Z,22.25
2019-05-30T00:46:15.780Z,22.28
2019-05-30T00:47:16.378Z,22.25
2019-05-30T00:48:16.983Z,22.26
2019-05-30T00:49:17.583Z,22.25
2019-05-30T00:50:18.154Z,22.25
2019-05-30T00:51:18.729Z,22.22
2019-05-30T00:52:19.343Z,22.23
2019-05-30T00:53:19.915Z,22.22
2019-05-30T00:54:20.532Z,22.25
2019-05-30T00:55:21.103Z,22.18
2019-05-30T00:56:21.675Z,22.18
2019-05-30T00:57:22.255Z,22.14
2019-05-30T00:58:22.867Z,22.22
2019-05-30T00:59:23.440Z,22.15
2019-05-30T01:00:41.661Z,22.22
2019-05-30T01:01:25.580Z,22.18
2019-05-30T01:02:26.152Z,22.25
2019-05-30T01:03:26.762Z,22.15
2019-05-30T01:04:27.340Z,22.13
2019-05-30T01:05:27.912Z,22.15
2019-05-30T01:06:28.511Z,22.17
2019-05-30T01:07:29.100Z,22.25
2019-05-30T01:08:29.671Z,22.18
2019-05-30T01:09:30.241Z,22.18
2019-05-30T01:10:30.821Z,22.23
2019-05-30T01:11:31.389Z,22.25
2019-05-30T01:12:31.959Z,22.11
2019-05-30T01:13:32.531Z,22.17
2019-05-30T01:14:33.132Z,22.22
2019-05-30T01:15:33.724Z,22.11
2019-05-30T01:16:34.332Z,22.22
2019-05-30T01:17:34.934Z,22.23
2019-05-30T01:18:35.523Z,22.17
2019-05-30T01:19:36.105Z,22.14
2019-05-30T01:20:36.912Z,22.08
2019-05-30T01:21:37.492Z,22.14
2019-05-30T01:22:38.091Z,22.22
2019-05-30T01:23:38.695Z,22.10
2019-05-30T01:24:39.293Z,22.17
2019-05-30T01:25:39.929Z,22.23
2019-05-30T01:26:40.530Z,22.11
2019-05-30T01:27:41.329Z,22.13
2019-05-30T01:28:41.902Z,22.07
2019-05-30T01:29:42.523Z,22.14
2019-05-30T01:30:58.648Z,22.10
2019-05-30T01:31:43.739Z,22.14
2019-05-30T01:32:44.344Z,22.15
2019-05-30T01:33:44.944Z,22.13
2019-05-30T01:34:45.545Z,22.10
2019-05-30T01:35:46.175Z,22.15
2019-05-30T01:36:46.777Z,22.11
2019-05-30T01:37:47.390Z,22.14
2019-05-30T01:38:48.007Z,22.18
2019-05-30T01:39:48.604Z,22.13
2019-05-30T01:40:49.399Z,22.13
2019-05-30T01:41:50.029Z,22.14
2019-05-30T01:42:50.681Z,22.11
2019-05-30T01:43:51.239Z,22.14
2019-05-30T01:44:51.812Z,22.13
2019-05-30T01:45:52.394Z,22.15
2019-05-30T01:46:53.012Z,22.15
2019-05-30T01:47:53.636Z,22.13
2019-05-30T01:48:54.268Z,22.10
2019-05-30T01:49:54.852Z,22.14
2019-05-30T01:50:55.696Z,22.08
2019-05-30T01:51:56.491Z,22.06
2019-05-30T01:52:58.365Z,22.22
2019-05-30T01:53:58.336Z,22.15
2019-05-30T01:54:58.559Z,22.11
2019-05-30T01:56:00.542Z,22.13
2019-05-30T01:57:00.475Z,22.10
2019-05-30T01:58:01.502Z,22.13
2019-05-30T01:59:01.058Z,22.15
2019-05-30T02:00:06.397Z,22.14
2019-05-30T02:02:17.704Z,22.15
2019-05-30T02:03:18.290Z,22.11
2019-05-30T02:04:18.908Z,22.11
2019-05-30T02:05:19.521Z,22.15
2019-05-30T02:06:20.112Z,22.11
2019-05-30T02:07:20.711Z,22.15
2019-05-30T02:08:21.283Z,22.15
2019-05-30T02:09:21.892Z,22.10
2019-05-30T02:10:22.477Z,22.13
2019-05-30T02:11:23.170Z,22.15
2019-05-30T02:12:23.918Z,22.15
2019-05-30T02:13:24.523Z,22.15
2019-05-30T02:14:25.150Z,22.17
2019-05-30T02:15:25.759Z,22.13
2019-05-30T02:16:26.368Z,22.10
2019-05-30T02:17:26.961Z,22.11
2019-05-30T02:18:27.573Z,22.14
2019-05-30T02:19:28.211Z,22.11
2019-05-30T02:20:28.793Z,22.14
2019-05-30T02:21:29.409Z,22.18
2019-05-30T02:22:29.981Z,22.20
2019-05-30T02:23:30.556Z,22.10
2019-05-30T02:24:31.174Z,22.23
2019-05-30T02:25:31.805Z,22.13
2019-05-30T02:26:32.629Z,22.13
2019-05-30T02:28:48.654Z,22.17
2019-05-30T02:29:49.256Z,22.17
2019-05-30T02:30:49.835Z,22.20
2019-05-30T02:31:50.415Z,22.13
2019-05-30T02:32:51.017Z,22.17
2019-05-30T02:33:51.590Z,22.22
2019-05-30T02:34:52.164Z,22.25
2019-05-30T02:35:52.803Z,22.17
2019-05-30T02:36:53.428Z,22.20
2019-05-30T02:37:54.015Z,22.14
2019-05-30T02:38:54.589Z,22.17
2019-05-30T02:40:00.090Z,22.18
2019-05-30T02:40:56.735Z,22.18
2019-05-30T02:41:57.338Z,22.15
2019-05-30T02:42:57.912Z,22.23
2019-05-30T02:43:58.487Z,22.23
2019-05-30T02:44:59.061Z,22.25
2019-05-30T02:46:00.947Z,22.23
2019-05-30T02:47:01.583Z,22.18
2019-05-30T02:48:03.198Z,22.22
2019-05-30T02:49:04.909Z,22.20
2019-05-30T02:50:06.134Z,22.23
2019-05-30T02:51:07.923Z,22.28
2019-05-30T02:52:08.617Z,22.23
2019-05-30T02:53:10.949Z,22.23
2019-05-30T02:54:12.690Z,22.30
2019-05-30T02:55:13.472Z,22.25
2019-05-30T02:56:13.888Z,22.28
2019-05-30T02:57:14.458Z,22.23
2019-05-30T02:58:15.031Z,22.22
2019-05-30T02:59:15.607Z,22.26
2019-05-30T03:00:17.718Z,22.22
2019-05-30T03:01:17.771Z,22.25
2019-05-30T03:02:18.351Z,22.28
2019-05-30T03:03:18.920Z,22.26
2019-05-30T03:04:19.495Z,22.36
2019-05-30T03:05:20.078Z,22.29
2019-05-30T03:06:20.639Z,22.29
2019-05-30T03:07:21.212Z,22.28
2019-05-30T03:08:21.788Z,22.26
2019-05-30T03:09:22.365Z,22.28
2019-05-30T03:10:22.928Z,22.28
2019-05-30T03:11:23.508Z,22.32
2019-05-30T03:12:24.114Z,22.25
2019-05-30T03:13:24.686Z,22.30
2019-05-30T03:14:25.264Z,22.29
2019-05-30T03:15:25.831Z,22.22
2019-05-30T03:16:26.405Z,22.26
2019-05-30T03:17:26.991Z,22.36
2019-05-30T03:18:27.549Z,22.28
2019-05-30T03:19:28.120Z,22.29
2019-05-30T03:20:28.704Z,22.41
2019-05-30T03:21:29.265Z,22.35
2019-05-30T03:22:29.838Z,22.30
2019-05-30T03:23:30.410Z,22.35
2019-05-30T03:24:30.987Z,22.35
2019-05-30T03:25:31.557Z,22.38
2019-05-30T03:26:32.128Z,22.38
2019-05-30T03:27:32.701Z,22.30
2019-05-30T03:28:33.273Z,22.38
2019-05-30T03:29:33.847Z,22.38
2019-05-30T03:30:34.425Z,22.39
2019-05-30T03:31:34.987Z,22.35
2019-05-30T03:33:41.602Z,22.39
2019-05-30T03:34:37.745Z,22.35
2019-05-30T03:35:42.710Z,22.38
2019-05-30T03:36:38.916Z,22.35
2019-05-30T03:37:39.523Z,22.36
2019-05-30T03:38:40.098Z,22.44
2019-05-30T03:39:40.671Z,22.44
2019-05-30T03:40:41.243Z,22.44
2019-05-30T03:41:41.814Z,22.44
2019-05-30T03:42:42.388Z,22.35
2019-05-30T03:43:42.961Z,22.41
2019-05-30T03:44:43.538Z,22.38
2019-05-30T03:45:44.151Z,22.39
2019-05-30T03:46:44.721Z,22.36
2019-05-30T03:47:45.295Z,22.44
2019-05-30T03:48:45.866Z,22.38
2019-05-30T03:49:46.439Z,22.39
2019-05-30T03:50:47.015Z,22.47
2019-05-30T03:51:47.586Z,22.44
2019-05-30T03:52:48.162Z,22.41
2019-05-30T03:53:48.775Z,22.35
2019-05-30T03:54:49.346Z,22.44
2019-05-30T03:55:49.918Z,22.35
2019-05-30T03:56:50.499Z,22.39
2019-05-30T03:57:51.064Z,22.47
2019-05-30T03:58:51.634Z,22.44
2019-05-30T03:59:52.222Z,22.44
2019-05-30T04:00:52.826Z,22.36
2019-05-30T04:01:53.438Z,22.43
2019-05-30T04:02:58.160Z,22.43
2019-05-30T04:03:54.620Z,22.33
2019-05-30T04:04:55.193Z,22.44
2019-05-30T04:05:55.768Z,22.39
2019-05-30T04:06:56.337Z,22.45
2019-05-30T04:07:56.908Z,22.39
2019-05-30T04:08:57.481Z,22.39
2019-05-30T04:09:58.051Z,22.35
2019-05-30T04:10:58.626Z,22.45
2019-05-30T04:11:59.200Z,22.38
2019-05-30T04:12:59.770Z,22.43
2019-05-30T04:14:00.342Z,22.43
2019-05-30T04:15:00.916Z,22.43
2019-05-30T04:16:01.488Z,22.43
2019-05-30T04:17:02.067Z,22.41
2019-05-30T04:18:02.680Z,22.44
2019-05-30T04:19:03.252Z,22.47
2019-05-30T04:20:03.826Z,22.43
2019-05-30T04:21:04.395Z,22.44
2019-05-30T04:22:04.968Z,22.45
2019-05-30T04:23:05.540Z,22.44
2019-05-30T04:24:07.280Z,22.38
2019-05-30T04:25:08.569Z,22.39
2019-05-30T04:26:09.678Z,22.43
2019-05-30T04:27:12.042Z,22.38
2019-05-30T04:28:14.005Z,22.44
2019-05-30T04:29:15.002Z,22.36
2019-05-30T04:30:16.315Z,22.41
2019-05-30T04:31:17.723Z,22.36
2019-05-30T04:32:18.700Z,22.43
2019-05-30T04:33:31.634Z,22.45
2019-05-30T04:34:19.760Z,22.43
2019-05-30T04:35:20.306Z,22.41
2019-05-30T04:36:20.873Z,22.35
2019-05-30T04:37:21.444Z,22.43
2019-05-30T04:38:22.022Z,22.45
2019-05-30T04:39:22.613Z,22.41
2019-05-30T04:40:23.208Z,22.45
2019-05-30T04:41:23.791Z,22.38
2019-05-30T04:42:24.360Z,22.44
2019-05-30T04:43:24.968Z,22.39
2019-05-30T04:44:25.563Z,22.41
2019-05-30T04:45:27.956Z,22.44
2019-05-30T04:46:27.698Z,22.45
2019-05-30T04:47:28.271Z,22.36
2019-05-30T04:48:28.846Z,22.41
2019-05-30T04:49:29.453Z,22.33
2019-05-30T04:50:30.000Z,22.38
2019-05-30T04:51:30.578Z,22.43
2019-05-30T04:52:31.189Z,22.36
2019-05-30T04:53:31.802Z,22.41
2019-05-30T04:54:32.376Z,22.38
2019-05-30T04:55:32.990Z,22.32
2019-05-30T04:56:33.580Z,22.36
2019-05-30T04:57:34.176Z,22.38
2019-05-30T04:58:34.753Z,22.41
2019-05-30T04:59:35.360Z,22.41
2019-05-30T05:00:35.936Z,22.36
2019-05-30T05:01:36.510Z,22.39
2019-05-30T05:02:37.081Z,22.39
2019-05-30T05:03:45.967Z,22.43
2019-05-30T05:04:39.218Z,22.38
2019-05-30T05:05:39.789Z,22.41
2019-05-30T05:06:40.373Z,22.35
2019-05-30T05:07:40.935Z,22.44
2019-05-30T05:08:41.510Z,22.38
2019-05-30T05:09:42.129Z,22.39
2019-05-30T05:10:42.694Z,22.39
2019-05-30T05:11:43.278Z,22.35
2019-05-30T05:12:43.841Z,22.39
2019-05-30T05:13:44.414Z,22.30
2019-05-30T05:14:44.991Z,22.36
2019-05-30T05:15:45.558Z,22.33
2019-05-30T05:16:46.132Z,22.38
2019-05-30T05:17:46.707Z,22.38
2019-05-30T05:18:47.279Z,22.36
2019-05-30T05:19:47.852Z,22.38
2019-05-30T05:20:48.424Z,22.38
2019-05-30T05:21:48.997Z,22.44
2019-05-30T05:22:49.568Z,22.33
2019-05-30T05:23:50.148Z,22.35
2019-05-30T05:24:50.715Z,22.41
2019-05-30T05:26:00.294Z,22.36
2019-05-30T05:26:52.859Z,22.33
2019-05-30T05:27:53.473Z,22.33
2019-05-30T05:28:54.044Z,22.36
2019-05-30T05:29:54.615Z,22.36
2019-05-30T05:30:55.195Z,22.36
2019-05-30T05:31:55.768Z,22.39
2019-05-30T05:32:56.383Z,22.38
2019-05-30T05:33:57.396Z,22.36
2019-05-30T05:34:57.558Z,22.35
2019-05-30T05:35:58.132Z,22.44
2019-05-30T05:36:58.747Z,22.38
2019-05-30T05:37:59.319Z,22.36
2019-05-30T05:38:59.891Z,22.38
2019-05-30T05:40:00.523Z,22.35
2019-05-30T05:41:01.050Z,22.43
2019-05-30T05:42:01.623Z,22.35
2019-05-30T05:43:02.195Z,22.36
2019-05-30T05:44:02.766Z,22.38
2019-05-30T05:45:03.341Z,22.36
2019-05-30T05:46:03.914Z,22.33
2019-05-30T05:47:04.490Z,22.36
2019-05-30T05:48:05.124Z,22.35
2019-05-30T05:49:05.648Z,22.28
2019-05-30T05:50:06.220Z,22.33
2019-05-30T05:51:06.793Z,22.38
2019-05-30T05:52:07.364Z,22.38
2019-05-30T05:53:07.938Z,22.33
2019-05-30T05:54:08.508Z,22.36
2019-05-30T05:55:09.080Z,22.35
2019-05-30T05:56:09.673Z,22.43
2019-05-30T05:57:10.269Z,22.29
2019-05-30T05:58:10.843Z,22.41
2019-05-30T05:59:11.414Z,22.33
2019-05-30T06:00:11.986Z,22.33
2019-05-30T06:01:12.559Z,22.43
2019-05-30T06:02:13.158Z,22.39
2019-05-30T06:03:13.708Z,22.36
2019-05-30T06:04:14.281Z,22.33
2019-05-30T06:05:15.910Z,22.39
2019-05-30T06:06:17.256Z,22.38
2019-05-30T06:07:18.206Z,22.36
2019-05-30T06:08:19.488Z,22.39
2019-05-30T06:09:20.602Z,22.35
2019-05-30T06:10:21.729Z,22.36
2019-05-30T06:11:22.746Z,22.36
2019-05-30T06:12:23.832Z,22.38
2019-05-30T06:13:24.832Z,22.30
2019-05-30T06:14:26.227Z,22.43
2019-05-30T06:15:26.808Z,22.43
2019-05-30T06:16:28.406Z,22.33
2019-05-30T06:17:29.261Z,22.38
2019-05-30T06:18:29.555Z,22.41
2019-05-30T06:19:45.328Z,22.36
2019-05-30T06:20:31.692Z,22.41
2019-05-30T06:21:32.265Z,22.38
2019-05-30T06:22:32.839Z,22.35
2019-05-30T06:23:33.413Z,22.43
2019-05-30T06:24:34.026Z,22.38
2019-05-30T06:25:34.602Z,22.36
2019-05-30T06:26:35.172Z,22.39
2019-05-30T06:27:35.744Z,22.41
2019-05-30T06:28:36.319Z,22.41
2019-05-30T06:29:36.891Z,22.39
2019-05-30T06:30:37.464Z,22.35
2019-05-30T06:31:38.038Z,22.35
2019-05-30T06:32:38.612Z,22.33
2019-05-30T06:33:39.185Z,22.36
2019-05-30T06:34:40.239Z,22.36
2019-05-30T06:35:40.864Z,22.35
2019-05-30T06:36:41.466Z,22.36
2019-05-30T06:37:42.081Z,22.32
2019-05-30T06:38:42.694Z,22.36
2019-05-30T06:39:43.275Z,22.32
2019-05-30T06:40:43.843Z,22.43
2019-05-30T06:41:44.418Z,22.38
2019-05-30T06:42:45.040Z,22.35
2019-05-30T06:43:45.614Z,22.35
2019-05-30T06:44:46.185Z,22.39
2019-05-30T06:45:46.757Z,22.38
2019-05-30T06:46:47.330Z,22.36
2019-05-30T06:47:47.904Z,22.35
2019-05-30T06:48:48.476Z,22.35
2019-05-30T06:49:49.098Z,22.36
2019-05-30T06:50:49.664Z,22.32
2019-05-30T06:51:50.246Z,22.38
2019-05-30T06:52:50.850Z,22.36
2019-05-30T06:53:51.390Z,22.35
2019-05-30T06:54:51.962Z,22.45
2019-05-30T06:55:52.535Z,22.38
2019-05-30T06:56:53.106Z,22.36
2019-05-30T06:57:53.681Z,22.36
2019-05-30T06:58:54.252Z,22.36
2019-05-30T06:59:54.823Z,22.38
2019-05-30T07:00:55.405Z,22.35
2019-05-30T07:01:55.967Z,22.43
2019-05-30T07:02:56.614Z,22.47
2019-05-30T07:03:57.334Z,22.43
2019-05-30T07:04:58.420Z,22.44
2019-05-30T07:05:59.603Z,22.41
2019-05-30T07:07:00.698Z,22.41
2019-05-30T07:08:01.429Z,22.43
2019-05-30T07:09:02.004Z,22.45
2019-05-30T07:10:02.576Z,22.39
2019-05-30T07:11:03.148Z,22.41
2019-05-30T07:12:03.723Z,22.44
2019-05-30T07:13:04.297Z,22.41
2019-05-30T07:14:04.866Z,22.45
2019-05-30T07:15:05.439Z,22.43
2019-05-30T07:16:06.012Z,22.41
2019-05-30T07:17:06.586Z,22.43
2019-05-30T07:18:07.182Z,22.47
2019-05-30T07:19:07.775Z,22.47
2019-05-30T07:20:08.348Z,22.43
2019-05-30T07:21:08.964Z,22.45
2019-05-30T07:22:09.536Z,22.45
2019-05-30T07:23:10.112Z,22.44
2019-05-30T07:24:10.687Z,22.38
2019-05-30T07:25:11.302Z,22.41
2019-05-30T07:26:11.874Z,22.44
2019-05-30T07:27:12.487Z,22.43
2019-05-30T07:28:13.064Z,22.47
2019-05-30T07:29:13.640Z,22.43
2019-05-30T07:30:14.235Z,22.44
2019-05-30T07:31:30.192Z,22.41
2019-05-30T07:32:32.060Z,22.41
2019-05-30T07:33:33.007Z,22.47
2019-05-30T07:34:34.288Z,22.43
2019-05-30T07:35:34.846Z,22.44
2019-05-30T07:36:35.452Z,22.41
2019-05-30T07:37:36.029Z,22.41
2019-05-30T07:38:36.594Z,22.47
2019-05-30T07:39:37.600Z,22.39
2019-05-30T07:40:38.245Z,22.41
2019-05-30T07:41:38.821Z,22.41
2019-05-30T07:42:39.391Z,22.43
2019-05-30T07:43:39.967Z,22.41
2019-05-30T07:44:40.583Z,22.36
2019-05-30T07:45:41.155Z,22.41
2019-05-30T07:46:41.728Z,22.41
2019-05-30T07:47:42.300Z,22.35
2019-05-30T07:48:42.872Z,22.41
2019-05-30T07:49:43.445Z,22.36
2019-05-30T07:50:44.016Z,22.44
2019-05-30T07:51:44.589Z,22.44
2019-05-30T07:52:45.161Z,22.44
2019-05-30T07:53:45.733Z,22.43
2019-05-30T07:54:46.306Z,22.39
2019-05-30T07:55:46.879Z,22.43
2019-05-30T07:56:47.452Z,22.47
2019-05-30T07:57:48.047Z,22.43
2019-05-30T07:58:48.642Z,22.45
2019-05-30T07:59:49.214Z,22.50
2019-05-30T08:00:49.786Z,22.48
2019-05-30T08:01:50.361Z,22.59
2019-05-30T08:02:50.935Z,22.48
2019-05-30T08:03:51.513Z,22.51
2019-05-30T08:04:52.087Z,22.50
2019-05-30T08:05:52.661Z,22.60
2019-05-30T08:06:53.234Z,22.51
2019-05-30T08:07:53.811Z,22.53
2019-05-30T08:08:54.387Z,22.55
2019-05-30T08:09:54.963Z,22.50
2019-05-30T08:11:08.422Z,22.57
2019-05-30T08:11:57.102Z,22.50
2019-05-30T08:12:57.677Z,22.59
2019-05-30T08:13:58.266Z,22.51
2019-05-30T08:14:58.865Z,22.53
2019-05-30T08:15:59.443Z,22.59
2019-05-30T08:17:00.013Z,22.55
2019-05-30T08:18:00.588Z,22.60
2019-05-30T08:19:01.203Z,22.51
2019-05-30T08:20:01.775Z,22.53
2019-05-30T08:21:02.346Z,22.62
2019-05-30T08:22:02.935Z,22.62
2019-05-30T08:23:03.537Z,22.60
2019-05-30T08:24:04.110Z,22.59
2019-05-30T08:25:04.683Z,22.63
2019-05-30T08:26:05.256Z,22.65
2019-05-30T08:27:05.831Z,22.59
2019-05-30T08:28:06.405Z,22.59
2019-05-30T08:29:07.021Z,22.59
2019-05-30T08:30:07.597Z,22.62
2019-05-30T08:31:08.213Z,22.63
2019-05-30T08:32:08.790Z,22.59
2019-05-30T08:33:09.363Z,22.60
2019-05-30T08:34:09.937Z,22.63
2019-05-30T08:35:10.512Z,22.59
2019-05-30T08:36:11.192Z,22.60
2019-05-30T08:37:11.727Z,22.59
2019-05-30T08:38:12.302Z,22.63
2019-05-30T08:39:12.950Z,22.68
2019-05-30T08:40:13.501Z,22.60
2019-05-30T08:41:14.074Z,22.60
2019-05-30T08:42:14.647Z,22.63
2019-05-30T08:45:33.686Z,22.63
2019-05-30T08:46:34.268Z,22.60
2019-05-30T08:47:35.966Z,22.62
2019-05-30T08:48:36.417Z,22.62
2019-05-30T08:49:38.178Z,22.65
2019-05-30T08:50:42.623Z,22.66
2019-05-30T08:51:40.512Z,22.65
2019-05-30T08:52:41.215Z,22.68
2019-05-30T08:53:41.693Z,22.59
2019-05-30T08:54:42.267Z,22.66
2019-05-30T08:55:42.842Z,22.62
2019-05-30T08:56:43.416Z,22.59
2019-05-30T08:57:43.989Z,22.62
2019-05-30T08:58:44.563Z,22.65
2019-05-30T08:59:45.138Z,22.63
2019-05-30T09:00:45.711Z,22.66
2019-05-30T09:01:49.881Z,22.76
2019-05-30T09:02:47.857Z,22.73
2019-05-30T09:03:48.432Z,22.70
2019-05-30T09:04:49.006Z,22.72
2019-05-30T09:06:03.021Z,22.65
2019-05-30T09:06:50.195Z,22.72
2019-05-30T09:07:50.769Z,22.72
2019-05-30T09:08:51.344Z,22.68
2019-05-30T09:09:51.917Z,22.63
2019-05-30T09:10:52.493Z,22.70
2019-05-30T09:11:53.066Z,22.69
2019-05-30T09:12:53.653Z,22.68
2019-05-30T09:13:54.266Z,22.73
2019-05-30T09:14:54.833Z,22.70
2019-05-30T09:15:55.405Z,22.73
2019-05-30T09:16:57.073Z,22.75
2019-05-30T09:17:57.547Z,22.76
2019-05-30T09:18:58.122Z,22.76
2019-05-30T09:19:58.730Z,22.72
2019-05-30T09:20:59.314Z,22.70
2019-05-30T09:21:59.889Z,22.70
2019-05-30T09:23:00.463Z,22.76
2019-05-30T09:24:01.643Z,22.72
2019-05-30T09:25:02.266Z,22.72
2019-05-30T09:26:02.838Z,22.73
2019-05-30T09:27:03.413Z,22.70
2019-05-30T09:28:03.986Z,22.73
2019-05-30T09:29:04.563Z,22.75
2019-05-30T09:30:05.133Z,22.70
2019-05-30T09:31:05.744Z,22.75
2019-05-30T09:32:06.324Z,22.73
2019-05-30T09:33:06.898Z,22.70
2019-05-30T09:34:07.475Z,22.80
2019-05-30T09:35:08.047Z,22.72
2019-05-30T09:36:13.184Z,22.73
2019-05-30T09:37:10.190Z,22.75
2019-05-30T09:38:10.761Z,22.83
2019-05-30T09:39:11.335Z,22.75
2019-05-30T09:40:11.910Z,22.83
2019-05-30T09:42:28.112Z,22.76
2019-05-30T09:43:28.685Z,22.88
2019-05-30T09:44:29.260Z,22.76
2019-05-30T09:45:29.882Z,22.78
2019-05-30T09:46:30.403Z,22.80
2019-05-30T09:47:30.979Z,22.85
2019-05-30T09:48:31.579Z,22.83
2019-05-30T09:49:32.165Z,22.80
2019-05-30T09:50:32.739Z,22.78
2019-05-30T09:51:33.312Z,22.84
2019-05-30T09:52:33.889Z,22.83
2019-05-30T09:53:34.463Z,22.84
2019-05-30T09:54:35.040Z,22.84
2019-05-30T09:55:35.612Z,22.83
2019-05-30T09:56:36.192Z,22.83
2019-05-30T09:57:36.764Z,22.88
2019-05-30T09:58:37.337Z,22.85
2019-05-30T09:59:37.955Z,22.85
2019-05-30T10:00:38.534Z,22.87
2019-05-30T10:01:39.109Z,22.85
2019-05-30T10:02:39.680Z,22.88
2019-05-30T10:03:40.253Z,22.88
2019-05-30T10:04:42.040Z,22.88
2019-05-30T10:05:43.787Z,22.88
2019-05-30T10:06:43.580Z,22.88
2019-05-30T10:07:45.555Z,22.98
2019-05-30T10:08:47.722Z,22.91
2019-05-30T10:09:47.111Z,22.93
2019-05-30T10:10:47.798Z,22.85
2019-05-30T10:11:49.348Z,22.90
2019-05-30T10:12:50.338Z,22.93
2019-05-30T10:13:51.229Z,23.00
2019-05-30T10:14:51.243Z,22.99
2019-05-30T10:15:52.594Z,23.00
2019-05-30T10:16:56.343Z,22.94
2019-05-30T10:17:54.823Z,22.94
2019-05-30T10:18:55.363Z,23.02
2019-05-30T10:19:57.240Z,22.99
2019-05-30T10:20:57.503Z,22.99
2019-05-30T10:21:58.075Z,23.06
2019-05-30T10:22:58.655Z,23.05
2019-05-30T10:23:59.227Z,22.99
2019-05-30T10:24:59.801Z,23.03
2019-05-30T10:26:00.374Z,23.09
2019-05-30T10:27:00.947Z,23.06
2019-05-30T10:28:01.522Z,23.15
2019-05-30T10:29:02.097Z,23.13
2019-05-30T10:30:02.670Z,23.05
2019-05-30T10:31:03.245Z,23.00
2019-05-30T10:32:03.862Z,23.05
2019-05-30T10:33:04.438Z,23.10
2019-05-30T10:34:05.012Z,23.21
2019-05-30T10:35:05.585Z,23.10
2019-05-30T10:36:06.161Z,23.15
2019-05-30T10:37:06.733Z,23.12
2019-05-30T10:38:07.309Z,23.20
2019-05-30T10:39:07.899Z,23.17
2019-05-30T10:40:08.502Z,23.21
2019-05-30T10:41:09.077Z,23.10
2019-05-30T10:42:09.662Z,23.27
2019-05-30T10:43:10.276Z,23.20
2019-05-30T10:44:10.850Z,23.18
2019-05-30T10:45:11.427Z,23.15
2019-05-30T10:46:11.999Z,23.23
2019-05-30T10:47:12.576Z,23.17
2019-05-30T10:48:13.212Z,23.18
2019-05-30T10:49:13.809Z,23.21
2019-05-30T10:50:14.383Z,23.24
2019-05-30T10:51:14.961Z,23.21
2019-05-30T10:52:15.535Z,23.28
2019-05-30T10:53:16.105Z,23.24
2019-05-30T10:54:16.681Z,23.21
2019-05-30T10:55:17.256Z,23.20
2019-05-30T10:56:17.875Z,23.25
2019-05-30T10:57:18.448Z,23.27
2019-05-30T10:58:19.043Z,23.25
2019-05-30T10:59:19.641Z,23.34
2019-05-30T11:00:20.225Z,23.32
2019-05-30T11:01:20.789Z,23.31
2019-05-30T11:02:21.364Z,23.40
2019-05-30T11:03:21.936Z,23.37
2019-05-30T11:04:22.512Z,23.34
2019-05-30T11:05:23.087Z,23.40
2019-05-30T11:06:23.660Z,23.43
2019-05-30T11:07:24.236Z,23.40
2019-05-30T11:08:24.861Z,23.39
2019-05-30T11:09:25.437Z,23.41
2019-05-30T11:10:26.011Z,23.41
2019-05-30T11:11:26.588Z,23.43
2019-05-30T11:12:27.202Z,23.47
2019-05-30T11:13:27.777Z,23.47
2019-05-30T11:14:28.351Z,23.48
2019-05-30T11:15:28.925Z,23.46
2019-05-30T11:16:29.500Z,23.47
2019-05-30T11:17:30.075Z,23.51
2019-05-30T11:18:30.649Z,23.50
2019-05-30T11:19:31.223Z,23.55
2019-05-30T11:20:31.804Z,23.51
2019-05-30T11:21:32.371Z,23.54
2019-05-30T11:22:32.965Z,23.47
2019-05-30T11:23:33.562Z,23.56
2019-05-30T11:24:34.137Z,23.59
2019-05-30T11:25:34.715Z,23.58
2019-05-30T11:26:35.287Z,23.63
2019-05-30T11:27:35.860Z,23.58
2019-05-30T11:28:36.444Z,23.63
2019-05-30T11:29:37.009Z,23.66
2019-05-30T11:30:37.586Z,23.58
2019-05-30T11:31:38.157Z,23.61
2019-05-30T11:32:38.731Z,23.63
2019-05-30T11:33:39.311Z,23.58
2019-05-30T11:34:39.925Z,23.61
2019-05-30T11:35:40.501Z,23.61
2019-05-30T11:36:41.075Z,23.71
2019-05-30T11:37:41.650Z,23.71
2019-05-30T11:38:42.225Z,23.73
2019-05-30T11:39:42.797Z,23.69
2019-05-30T11:40:43.371Z,23.63
2019-05-30T11:41:43.948Z,23.73
2019-05-30T11:42:44.523Z,23.73
2019-05-30T11:43:45.100Z,23.74
2019-05-30T11:44:45.672Z,23.74
2019-05-30T11:45:46.243Z,23.83
2019-05-30T11:46:46.845Z,23.77
2019-05-30T11:47:47.455Z,23.76
2019-05-30T11:48:48.065Z,23.71
2019-05-30T11:49:49.550Z,23.74
2019-05-30T11:50:50.759Z,23.69
2019-05-30T11:51:51.704Z,23.77
2019-05-30T11:52:51.758Z,23.78
2019-05-30T11:53:51.967Z,23.80
2019-05-30T11:54:52.822Z,23.80
2019-05-30T11:55:54.248Z,23.80
2019-05-30T11:56:54.723Z,23.77
2019-05-30T11:57:56.220Z,23.83
2019-05-30T11:58:58.015Z,23.88
2019-05-30T12:00:12.193Z,23.91
2019-05-30T12:01:12.810Z,23.93
2019-05-30T12:02:13.387Z,23.88
2019-05-30T12:03:13.960Z,23.88
2019-05-30T12:04:14.737Z,23.86
2019-05-30T12:05:15.356Z,23.83
2019-05-30T12:06:15.928Z,23.87
2019-05-30T12:07:16.705Z,23.84
2019-05-30T12:08:17.277Z,23.87
2019-05-30T12:10:33.277Z,23.95
2019-05-30T12:11:33.896Z,23.96
2019-05-30T12:12:34.918Z,23.81
2019-05-30T12:13:35.705Z,23.98
2019-05-30T12:15:53.426Z,23.88
2019-05-30T12:16:55.184Z,23.92
2019-05-30T12:17:55.543Z,23.88
2019-05-30T12:18:56.119Z,23.91
2019-05-30T12:19:57.607Z,23.93
2019-05-30T12:20:58.169Z,23.93
2019-05-30T12:21:59.875Z,23.96
2019-05-30T12:23:00.315Z,23.95
2019-05-30T12:24:02.401Z,23.92
2019-05-30T12:25:02.792Z,23.95
2019-05-30T12:26:03.366Z,23.93
2019-05-30T12:27:03.940Z,23.96
2019-05-30T12:28:05.001Z,23.96
2019-05-30T12:29:05.630Z,24.03
2019-05-30T12:30:06.203Z,24.01
2019-05-30T12:31:06.951Z,24.08
2019-05-30T12:32:07.511Z,24.03
2019-05-30T12:33:08.086Z,24.06
2019-05-30T12:34:08.662Z,24.01
2019-05-30T12:35:09.243Z,24.08
2019-05-30T12:36:09.814Z,24.01
2019-05-30T12:37:10.388Z,24.03
2019-05-30T12:38:10.977Z,24.03
2019-05-30T12:39:11.587Z,24.06
2019-05-30T12:40:12.166Z,24.06
2019-05-30T12:41:12.747Z,24.03
2019-05-30T12:42:13.355Z,24.08
2019-05-30T12:43:13.934Z,24.03
2019-05-30T12:44:14.506Z,24.11
2019-05-30T12:45:15.110Z,24.11
2019-05-30T12:46:15.939Z,24.03
2019-05-30T12:47:16.525Z,24.05
2019-05-30T12:48:17.140Z,24.01
2019-05-30T12:49:17.746Z,24.03
2019-05-30T12:50:18.333Z,24.01
2019-05-30T12:51:19.066Z,24.05
2019-05-30T12:52:19.665Z,24.08
2019-05-30T12:53:20.249Z,24.05
2019-05-30T12:54:20.867Z,24.03
2019-05-30T12:55:21.479Z,24.03
2019-05-30T12:56:22.056Z,23.92
2019-05-30T12:57:22.831Z,23.96
2019-05-30T12:58:23.448Z,23.99
2019-05-30T12:59:24.073Z,24.02
2019-05-30T13:01:40.121Z,23.98
2019-05-30T13:02:40.739Z,23.95
2019-05-30T13:03:41.355Z,23.93
2019-05-30T13:05:57.356Z,23.92
2019-05-30T13:06:59.375Z,23.93
2019-05-30T13:08:14.070Z,24.01
2019-05-30T13:09:01.570Z,24.01
2019-05-30T13:10:03.349Z,23.99
2019-05-30T13:11:03.884Z,23.92
2019-05-30T13:12:04.478Z,23.91
2019-05-30T13:13:06.168Z,23.91
2019-05-30T13:14:06.914Z,23.93